sensor_id;sensor_type;location;lat;lon;timestamp;P1;durP1;ratioP1;P2;durP2;ratioP2
69327;SDS011;56472;52.114;5.492;2023-02-28T00:00:22;7.97;;;4.13;;
69327;SDS011;56472;52.114;5.492;2023-02-28T00:02:49;9.82;;;3.75;;
69327;SDS011;56472;52.114;5.492;2023-02-28T00:05:17;5.53;;;3.22;;
69327;SDS011;56472;52.114;5.492;2023-02-28T00:07:46;8.00;;;3.80;;
69327;SDS011;56472;52.114;5.492;2023-02-28T00:10:15;6.03;;;4.00;;
69327;SDS011;56472;52.114;5.492;2023-02-28T00:12:47;6.38;;;3.70;;
69327;SDS011;56472;52.114;5.492;2023-02-28T00:15:15;4.50;;;3.33;;
69327;SDS011;56472;52.114;5.492;2023-02-28T00:17:43;8.23;;;4.20;;
69327;SDS011;56472;52.114;5.492;2023-02-28T00:20:11;5.72;;;3.42;;
69327;SDS011;56472;52.114;5.492;2023-02-28T00:22:40;7.90;;;3.38;;
69327;SDS011;56472;52.114;5.492;2023-02-28T00:25:10;11.70;;;3.75;;
69327;SDS011;56472;52.114;5.492;2023-02-28T00:27:38;5.68;;;3.45;;
69327;SDS011;56472;52.114;5.492;2023-02-28T00:30:06;8.80;;;3.17;;
69327;SDS011;56472;52.114;5.492;2023-02-28T00:32:36;7.28;;;3.42;;
69327;SDS011;56472;52.114;5.492;2023-02-28T00:35:03;4.78;;;3.10;;
69327;SDS011;56472;52.114;5.492;2023-02-28T00:37:31;7.28;;;3.00;;
69327;SDS011;56472;52.114;5.492;2023-02-28T00:39:59;6.30;;;3.20;;
69327;SDS011;56472;52.114;5.492;2023-02-28T00:42:26;6.35;;;3.35;;
69327;SDS011;56472;52.114;5.492;2023-02-28T00:44:53;4.80;;;3.28;;
69327;SDS011;56472;52.114;5.492;2023-02-28T00:47:20;6.20;;;3.10;;
69327;SDS011;56472;52.114;5.492;2023-02-28T00:49:47;4.93;;;3.20;;
69327;SDS011;56472;52.114;5.492;2023-02-28T00:52:14;5.28;;;2.83;;
69327;SDS011;56472;52.114;5.492;2023-02-28T00:54:41;6.80;;;2.58;;
69327;SDS011;56472;52.114;5.492;2023-02-28T00:57:08;4.63;;;3.15;;
69327;SDS011;56472;52.114;5.492;2023-02-28T00:59:35;5.00;;;3.03;;
69327;SDS011;56472;52.114;5.492;2023-02-28T01:02:02;5.15;;;2.80;;
69327;SDS011;56472;52.114;5.492;2023-02-28T01:04:29;7.57;;;3.30;;
69327;SDS011;56472;52.114;5.492;2023-02-28T01:06:59;5.47;;;2.60;;
69327;SDS011;56472;52.114;5.492;2023-02-28T01:09:27;4.15;;;2.88;;
69327;SDS011;56472;52.114;5.492;2023-02-28T01:11:54;5.03;;;3.22;;
69327;SDS011;56472;52.114;5.492;2023-02-28T01:14:22;7.72;;;3.55;;
69327;SDS011;56472;52.114;5.492;2023-02-28T01:16:49;4.00;;;3.42;;
69327;SDS011;56472;52.114;5.492;2023-02-28T01:19:17;10.63;;;3.65;;
69327;SDS011;56472;52.114;5.492;2023-02-28T01:21:45;5.05;;;3.35;;
69327;SDS011;56472;52.114;5.492;2023-02-28T01:24:12;2.65;;;2.47;;
69327;SDS011;56472;52.114;5.492;2023-02-28T01:26:39;5.88;;;3.35;;
69327;SDS011;56472;52.114;5.492;2023-02-28T01:29:06;9.50;;;3.28;;
69327;SDS011;56472;52.114;5.492;2023-02-28T01:31:33;7.65;;;3.25;;
69327;SDS011;56472;52.114;5.492;2023-02-28T01:34:01;4.82;;;3.40;;
69327;SDS011;56472;52.114;5.492;2023-02-28T01:36:28;4.15;;;3.22;;
69327;SDS011;56472;52.114;5.492;2023-02-28T01:38:55;5.38;;;3.40;;
69327;SDS011;56472;52.114;5.492;2023-02-28T01:41:23;8.85;;;3.15;;
69327;SDS011;56472;52.114;5.492;2023-02-28T01:43:57;4.65;;;3.03;;
69327;SDS011;56472;52.114;5.492;2023-02-28T01:46:54;9.32;;;3.85;;
69327;SDS011;56472;52.114;5.492;2023-02-28T01:49:21;3.85;;;2.92;;
69327;SDS011;56472;52.114;5.492;2023-02-28T01:51:49;7.95;;;3.33;;
69327;SDS011;56472;52.114;5.492;2023-02-28T01:54:19;5.22;;;3.10;;
69327;SDS011;56472;52.114;5.492;2023-02-28T01:57:09;7.90;;;3.53;;
69327;SDS011;56472;52.114;5.492;2023-02-28T01:59:42;5.80;;;2.63;;
69327;SDS011;56472;52.114;5.492;2023-02-28T02:02:17;9.68;;;3.08;;
69327;SDS011;56472;52.114;5.492;2023-02-28T02:04:50;5.82;;;3.25;;
69327;SDS011;56472;52.114;5.492;2023-02-28T02:07:33;6.43;;;3.40;;
69327;SDS011;56472;52.114;5.492;2023-02-28T02:10:06;4.45;;;3.33;;
69327;SDS011;56472;52.114;5.492;2023-02-28T02:15:18;6.55;;;3.28;;
69327;SDS011;56472;52.114;5.492;2023-02-28T02:17:56;9.23;;;3.35;;
69327;SDS011;56472;52.114;5.492;2023-02-28T02:26:01;8.10;;;3.35;;
69327;SDS011;56472;52.114;5.492;2023-02-28T02:28:41;7.85;;;3.35;;
69327;SDS011;56472;52.114;5.492;2023-02-28T02:31:35;6.78;;;3.30;;
69327;SDS011;56472;52.114;5.492;2023-02-28T02:37:27;5.88;;;3.20;;
69327;SDS011;56472;52.114;5.492;2023-02-28T02:40:09;5.22;;;3.22;;
69327;SDS011;56472;52.114;5.492;2023-02-28T02:42:56;4.78;;;3.50;;
69327;SDS011;56472;52.114;5.492;2023-02-28T02:45:36;5.75;;;2.97;;
69327;SDS011;56472;52.114;5.492;2023-02-28T02:48:09;6.82;;;3.55;;
69327;SDS011;56472;52.114;5.492;2023-02-28T02:50:41;3.63;;;3.20;;
69327;SDS011;56472;52.114;5.492;2023-02-28T02:53:10;8.60;;;3.80;;
69327;SDS011;56472;52.114;5.492;2023-02-28T02:55:42;4.30;;;3.58;;
69327;SDS011;56472;52.114;5.492;2023-02-28T02:58:15;3.95;;;3.33;;
69327;SDS011;56472;52.114;5.492;2023-02-28T03:00:47;11.32;;;3.50;;
69327;SDS011;56472;52.114;5.492;2023-02-28T03:03:19;8.45;;;3.90;;
69327;SDS011;56472;52.114;5.492;2023-02-28T03:05:55;6.03;;;3.72;;
69327;SDS011;56472;52.114;5.492;2023-02-28T03:08:24;3.50;;;3.20;;
69327;SDS011;56472;52.114;5.492;2023-02-28T03:10:55;3.78;;;3.30;;
69327;SDS011;56472;52.114;5.492;2023-02-28T03:24:10;4.03;;;3.28;;
69327;SDS011;56472;52.114;5.492;2023-02-28T03:26:52;7.10;;;3.67;;
69327;SDS011;56472;52.114;5.492;2023-02-28T03:32:18;8.07;;;3.60;;
69327;SDS011;56472;52.114;5.492;2023-02-28T03:34:57;5.22;;;4.05;;
69327;SDS011;56472;52.114;5.492;2023-02-28T03:37:29;6.68;;;3.70;;
69327;SDS011;56472;52.114;5.492;2023-02-28T03:40:06;5.72;;;3.72;;
69327;SDS011;56472;52.114;5.492;2023-02-28T03:42:39;5.97;;;3.40;;
69327;SDS011;56472;52.114;5.492;2023-02-28T03:45:28;4.72;;;3.53;;
69327;SDS011;56472;52.114;5.492;2023-02-28T03:47:58;6.93;;;3.88;;
69327;SDS011;56472;52.114;5.492;2023-02-28T03:50:37;10.13;;;3.53;;
69327;SDS011;56472;52.114;5.492;2023-02-28T03:55:45;6.70;;;3.67;;
69327;SDS011;56472;52.114;5.492;2023-02-28T04:00:46;5.97;;;4.25;;
69327;SDS011;56472;52.114;5.492;2023-02-28T04:03:18;5.85;;;3.72;;
69327;SDS011;56472;52.114;5.492;2023-02-28T04:05:47;14.27;;;4.15;;
69327;SDS011;56472;52.114;5.492;2023-02-28T04:08:17;4.90;;;4.25;;
69327;SDS011;56472;52.114;5.492;2023-02-28T04:10:45;4.15;;;3.65;;
69327;SDS011;56472;52.114;5.492;2023-02-28T04:13:37;7.65;;;3.55;;
69327;SDS011;56472;52.114;5.492;2023-02-28T04:16:07;5.47;;;2.78;;
69327;SDS011;56472;52.114;5.492;2023-02-28T04:18:49;4.72;;;3.30;;
69327;SDS011;56472;52.114;5.492;2023-02-28T04:21:16;5.03;;;3.25;;
69327;SDS011;56472;52.114;5.492;2023-02-28T04:23:46;5.47;;;3.63;;
69327;SDS011;56472;52.114;5.492;2023-02-28T04:26:13;11.27;;;3.53;;
69327;SDS011;56472;52.114;5.492;2023-02-28T04:28:40;5.72;;;3.72;;
69327;SDS011;56472;52.114;5.492;2023-02-28T04:31:07;7.75;;;3.65;;
69327;SDS011;56472;52.114;5.492;2023-02-28T04:33:35;5.00;;;3.90;;
69327;SDS011;56472;52.114;5.492;2023-02-28T04:36:03;4.65;;;3.72;;
69327;SDS011;56472;52.114;5.492;2023-02-28T04:38:37;6.28;;;4.00;;
69327;SDS011;56472;52.114;5.492;2023-02-28T04:41:04;4.30;;;3.73;;
69327;SDS011;56472;52.114;5.492;2023-02-28T04:43:32;5.60;;;3.80;;
69327;SDS011;56472;52.114;5.492;2023-02-28T04:46:00;4.18;;;2.90;;
69327;SDS011;56472;52.114;5.492;2023-02-28T04:48:29;5.55;;;3.13;;
69327;SDS011;56472;52.114;5.492;2023-02-28T04:51:05;6.43;;;3.42;;
69327;SDS011;56472;52.114;5.492;2023-02-28T04:53:36;4.70;;;2.97;;
69327;SDS011;56472;52.114;5.492;2023-02-28T04:56:04;5.00;;;3.38;;
69327;SDS011;56472;52.114;5.492;2023-02-28T04:58:32;3.35;;;3.05;;
69327;SDS011;56472;52.114;5.492;2023-02-28T05:01:03;6.28;;;3.03;;
69327;SDS011;56472;52.114;5.492;2023-02-28T05:03:39;5.63;;;3.30;;
69327;SDS011;56472;52.114;5.492;2023-02-28T05:06:09;5.10;;;3.40;;
69327;SDS011;56472;52.114;5.492;2023-02-28T05:08:37;5.18;;;3.20;;
69327;SDS011;56472;52.114;5.492;2023-02-28T05:11:06;3.88;;;3.22;;
69327;SDS011;56472;52.114;5.492;2023-02-28T05:13:38;5.80;;;3.28;;
69327;SDS011;56472;52.114;5.492;2023-02-28T05:16:05;4.45;;;3.30;;
69327;SDS011;56472;52.114;5.492;2023-02-28T05:18:32;5.47;;;3.05;;
69327;SDS011;56472;52.114;5.492;2023-02-28T05:20:59;10.48;;;4.03;;
69327;SDS011;56472;52.114;5.492;2023-02-28T05:23:29;6.10;;;3.20;;
69327;SDS011;56472;52.114;5.492;2023-02-28T05:25:56;6.65;;;3.58;;
69327;SDS011;56472;52.114;5.492;2023-02-28T05:28:23;6.13;;;3.50;;
69327;SDS011;56472;52.114;5.492;2023-02-28T05:30:50;4.88;;;3.15;;
69327;SDS011;56472;52.114;5.492;2023-02-28T05:33:17;3.58;;;3.10;;
69327;SDS011;56472;52.114;5.492;2023-02-28T05:35:44;4.90;;;3.13;;
69327;SDS011;56472;52.114;5.492;2023-02-28T05:38:11;3.20;;;2.85;;
69327;SDS011;56472;52.114;5.492;2023-02-28T05:40:38;3.65;;;3.08;;
69327;SDS011;56472;52.114;5.492;2023-02-28T05:43:07;3.42;;;3.15;;
69327;SDS011;56472;52.114;5.492;2023-02-28T05:45:36;4.90;;;3.20;;
69327;SDS011;56472;52.114;5.492;2023-02-28T05:48:03;9.40;;;3.10;;
69327;SDS011;56472;52.114;5.492;2023-02-28T05:50:31;7.07;;;2.50;;
69327;SDS011;56472;52.114;5.492;2023-02-28T05:52:58;5.63;;;3.03;;
69327;SDS011;56472;52.114;5.492;2023-02-28T05:55:25;6.40;;;3.40;;
69327;SDS011;56472;52.114;5.492;2023-02-28T05:57:52;6.90;;;3.28;;
69327;SDS011;56472;52.114;5.492;2023-02-28T06:00:18;7.05;;;3.33;;
69327;SDS011;56472;52.114;5.492;2023-02-28T06:02:46;11.40;;;3.50;;
69327;SDS011;56472;52.114;5.492;2023-02-28T06:05:16;5.72;;;3.33;;
69327;SDS011;56472;52.114;5.492;2023-02-28T06:07:44;4.72;;;3.10;;
69327;SDS011;56472;52.114;5.492;2023-02-28T06:10:11;6.95;;;3.72;;
69327;SDS011;56472;52.114;5.492;2023-02-28T06:12:39;6.25;;;3.78;;
69327;SDS011;56472;52.114;5.492;2023-02-28T06:15:11;4.32;;;3.20;;
69327;SDS011;56472;52.114;5.492;2023-02-28T06:20:08;3.83;;;3.47;;
69327;SDS011;56472;52.114;5.492;2023-02-28T06:22:36;7.28;;;3.60;;
69327;SDS011;56472;52.114;5.492;2023-02-28T06:25:03;9.05;;;3.58;;
69327;SDS011;56472;52.114;5.492;2023-02-28T06:27:31;4.30;;;3.60;;
69327;SDS011;56472;52.114;5.492;2023-02-28T06:29:59;4.00;;;3.60;;
69327;SDS011;56472;52.114;5.492;2023-02-28T06:32:26;5.95;;;3.95;;
69327;SDS011;56472;52.114;5.492;2023-02-28T06:34:53;5.30;;;4.18;;
69327;SDS011;56472;52.114;5.492;2023-02-28T06:37:20;4.15;;;3.70;;
69327;SDS011;56472;52.114;5.492;2023-02-28T06:39:47;5.90;;;3.95;;
69327;SDS011;56472;52.114;5.492;2023-02-28T06:42:14;7.03;;;4.00;;
69327;SDS011;56472;52.114;5.492;2023-02-28T06:44:41;7.95;;;4.00;;
69327;SDS011;56472;52.114;5.492;2023-02-28T06:47:09;4.40;;;4.00;;
69327;SDS011;56472;52.114;5.492;2023-02-28T06:49:36;4.43;;;4.03;;
69327;SDS011;56472;52.114;5.492;2023-02-28T06:52:03;7.65;;;4.53;;
69327;SDS011;56472;52.114;5.492;2023-02-28T06:54:30;5.47;;;3.95;;
69327;SDS011;56472;52.114;5.492;2023-02-28T06:56:57;5.70;;;4.57;;
69327;SDS011;56472;52.114;5.492;2023-02-28T06:59:25;6.03;;;4.80;;
69327;SDS011;56472;52.114;5.492;2023-02-28T07:01:52;6.30;;;4.55;;
69327;SDS011;56472;52.114;5.492;2023-02-28T07:04:19;6.60;;;4.57;;
69327;SDS011;56472;52.114;5.492;2023-02-28T07:06:45;6.05;;;4.75;;
69327;SDS011;56472;52.114;5.492;2023-02-28T07:09:12;5.25;;;4.10;;
69327;SDS011;56472;52.114;5.492;2023-02-28T07:11:40;12.43;;;4.70;;
69327;SDS011;56472;52.114;5.492;2023-02-28T07:14:09;7.55;;;4.18;;
69327;SDS011;56472;52.114;5.492;2023-02-28T07:16:36;6.70;;;4.05;;
69327;SDS011;56472;52.114;5.492;2023-02-28T07:19:02;4.40;;;4.10;;
69327;SDS011;56472;52.114;5.492;2023-02-28T07:21:29;4.53;;;4.13;;
69327;SDS011;56472;52.114;5.492;2023-02-28T07:23:57;5.18;;;4.20;;
69327;SDS011;56472;52.114;5.492;2023-02-28T07:26:24;6.13;;;4.53;;
69327;SDS011;56472;52.114;5.492;2023-02-28T07:28:51;4.57;;;4.18;;
69327;SDS011;56472;52.114;5.492;2023-02-28T07:31:18;7.55;;;4.22;;
69327;SDS011;56472;52.114;5.492;2023-02-28T07:33:45;6.57;;;4.53;;
69327;SDS011;56472;52.114;5.492;2023-02-28T07:36:13;7.57;;;4.85;;
69327;SDS011;56472;52.114;5.492;2023-02-28T07:38:42;9.35;;;5.07;;
69327;SDS011;56472;52.114;5.492;2023-02-28T07:41:14;9.02;;;5.40;;
69327;SDS011;56472;52.114;5.492;2023-02-28T07:43:42;10.82;;;5.05;;
69327;SDS011;56472;52.114;5.492;2023-02-28T07:46:10;11.55;;;4.97;;
69327;SDS011;56472;52.114;5.492;2023-02-28T07:48:38;6.40;;;4.75;;
69327;SDS011;56472;52.114;5.492;2023-02-28T07:51:05;6.65;;;5.18;;
69327;SDS011;56472;52.114;5.492;2023-02-28T07:53:33;6.50;;;4.38;;
69327;SDS011;56472;52.114;5.492;2023-02-28T07:56:00;9.10;;;4.22;;
69327;SDS011;56472;52.114;5.492;2023-02-28T07:58:29;12.23;;;4.93;;
69327;SDS011;56472;52.114;5.492;2023-02-28T08:00:56;7.25;;;4.40;;
69327;SDS011;56472;52.114;5.492;2023-02-28T08:03:30;7.00;;;4.72;;
69327;SDS011;56472;52.114;5.492;2023-02-28T08:05:57;5.63;;;4.63;;
69327;SDS011;56472;52.114;5.492;2023-02-28T08:08:24;8.90;;;4.68;;
69327;SDS011;56472;52.114;5.492;2023-02-28T08:10:55;5.53;;;4.18;;
69327;SDS011;56472;52.114;5.492;2023-02-28T08:13:23;11.18;;;4.97;;
69327;SDS011;56472;52.114;5.492;2023-02-28T08:15:50;4.32;;;3.95;;
69327;SDS011;56472;52.114;5.492;2023-02-28T08:18:17;6.07;;;4.20;;
69327;SDS011;56472;52.114;5.492;2023-02-28T08:20:44;4.70;;;4.22;;
69327;SDS011;56472;52.114;5.492;2023-02-28T08:23:11;6.65;;;4.25;;
69327;SDS011;56472;52.114;5.492;2023-02-28T08:25:38;12.07;;;4.07;;
69327;SDS011;56472;52.114;5.492;2023-02-28T08:28:05;5.05;;;4.15;;
69327;SDS011;56472;52.114;5.492;2023-02-28T08:30:32;4.82;;;3.15;;
69327;SDS011;56472;52.114;5.492;2023-02-28T08:32:59;3.60;;;3.30;;
69327;SDS011;56472;52.114;5.492;2023-02-28T08:35:26;6.20;;;3.30;;
69327;SDS011;56472;52.114;5.492;2023-02-28T08:37:53;5.43;;;3.15;;
69327;SDS011;56472;52.114;5.492;2023-02-28T08:40:20;3.78;;;3.03;;
69327;SDS011;56472;52.114;5.492;2023-02-28T08:42:47;3.53;;;2.88;;
69327;SDS011;56472;52.114;5.492;2023-02-28T08:45:14;3.05;;;2.75;;
69327;SDS011;56472;52.114;5.492;2023-02-28T08:47:41;3.05;;;2.70;;
69327;SDS011;56472;52.114;5.492;2023-02-28T08:50:08;4.13;;;2.40;;
69327;SDS011;56472;52.114;5.492;2023-02-28T08:52:35;2.67;;;2.33;;
69327;SDS011;56472;52.114;5.492;2023-02-28T08:55:02;5.00;;;2.15;;
69327;SDS011;56472;52.114;5.492;2023-02-28T08:57:29;3.55;;;2.05;;
69327;SDS011;56472;52.114;5.492;2023-02-28T08:59:56;2.95;;;2.25;;
69327;SDS011;56472;52.114;5.492;2023-02-28T09:02:23;5.50;;;1.58;;
69327;SDS011;56472;52.114;5.492;2023-02-28T09:04:50;3.25;;;2.35;;
69327;SDS011;56472;52.114;5.492;2023-02-28T09:07:17;2.17;;;1.80;;
69327;SDS011;56472;52.114;5.492;2023-02-28T09:09:44;3.83;;;1.60;;
69327;SDS011;56472;52.114;5.492;2023-02-28T09:12:21;2.28;;;1.77;;
69327;SDS011;56472;52.114;5.492;2023-02-28T09:14:49;2.25;;;2.05;;
69327;SDS011;56472;52.114;5.492;2023-02-28T09:17:17;1.85;;;1.75;;
69327;SDS011;56472;52.114;5.492;2023-02-28T09:19:44;1.95;;;1.85;;
69327;SDS011;56472;52.114;5.492;2023-02-28T09:22:11;1.80;;;1.70;;
69327;SDS011;56472;52.114;5.492;2023-02-28T09:24:38;1.70;;;1.60;;
69327;SDS011;56472;52.114;5.492;2023-02-28T09:27:06;1.40;;;1.40;;
69327;SDS011;56472;52.114;5.492;2023-02-28T09:29:34;1.60;;;1.50;;
69327;SDS011;56472;52.114;5.492;2023-02-28T09:32:01;3.47;;;1.65;;
69327;SDS011;56472;52.114;5.492;2023-02-28T09:34:28;1.95;;;1.33;;
69327;SDS011;56472;52.114;5.492;2023-02-28T09:36:57;2.63;;;1.90;;
69327;SDS011;56472;52.114;5.492;2023-02-28T09:39:24;1.63;;;1.52;;
69327;SDS011;56472;52.114;5.492;2023-02-28T09:41:53;1.73;;;1.63;;
69327;SDS011;56472;52.114;5.492;2023-02-28T09:44:31;1.58;;;1.48;;
69327;SDS011;56472;52.114;5.492;2023-02-28T09:47:07;1.85;;;1.75;;
69327;SDS011;56472;52.114;5.492;2023-02-28T09:49:56;2.25;;;1.67;;
69327;SDS011;56472;52.114;5.492;2023-02-28T09:52:28;3.10;;;2.00;;
69327;SDS011;56472;52.114;5.492;2023-02-28T09:55:00;1.70;;;1.60;;
69327;SDS011;56472;52.114;5.492;2023-02-28T09:57:50;1.65;;;1.55;;
69327;SDS011;56472;52.114;5.492;2023-02-28T10:00:30;1.95;;;1.50;;
69327;SDS011;56472;52.114;5.492;2023-02-28T10:03:10;1.48;;;1.30;;
69327;SDS011;56472;52.114;5.492;2023-02-28T10:05:51;1.35;;;1.25;;
69327;SDS011;56472;52.114;5.492;2023-02-28T10:08:25;2.13;;;1.77;;
69327;SDS011;56472;52.114;5.492;2023-02-28T10:11:00;2.15;;;2.05;;
69327;SDS011;56472;52.114;5.492;2023-02-28T10:16:14;1.63;;;1.52;;
69327;SDS011;56472;52.114;5.492;2023-02-28T10:24:29;2.25;;;1.70;;
69327;SDS011;56472;52.114;5.492;2023-02-28T10:27:22;2.55;;;1.63;;
69327;SDS011;56472;52.114;5.492;2023-02-28T10:29:53;1.70;;;1.60;;
69327;SDS011;56472;52.114;5.492;2023-02-28T10:32:32;2.42;;;1.40;;
69327;SDS011;56472;52.114;5.492;2023-02-28T10:35:22;1.50;;;1.40;;
69327;SDS011;56472;52.114;5.492;2023-02-28T10:37:50;2.80;;;1.92;;
69327;SDS011;56472;52.114;5.492;2023-02-28T10:45:24;1.63;;;1.52;;
69327;SDS011;56472;52.114;5.492;2023-02-28T10:47:54;2.25;;;1.27;;
69327;SDS011;56472;52.114;5.492;2023-02-28T10:55:59;2.70;;;1.45;;
69327;SDS011;56472;52.114;5.492;2023-02-28T11:03:51;2.17;;;1.50;;
69327;SDS011;56472;52.114;5.492;2023-02-28T11:06:23;2.58;;;1.20;;
69327;SDS011;56472;52.114;5.492;2023-02-28T11:09:02;1.75;;;1.48;;
69327;SDS011;56472;52.114;5.492;2023-02-28T11:11:41;1.70;;;1.60;;
69327;SDS011;56472;52.114;5.492;2023-02-28T11:14:20;1.65;;;1.55;;
69327;SDS011;56472;52.114;5.492;2023-02-28T11:16:53;5.50;;;1.73;;
69327;SDS011;56472;52.114;5.492;2023-02-28T11:19:24;1.90;;;1.70;;
69327;SDS011;56472;52.114;5.492;2023-02-28T11:22:02;1.70;;;1.50;;
69327;SDS011;56472;52.114;5.492;2023-02-28T11:24:33;1.50;;;1.40;;
69327;SDS011;56472;52.114;5.492;2023-02-28T11:27:10;2.13;;;1.27;;
69327;SDS011;56472;52.114;5.492;2023-02-28T11:29:56;1.35;;;1.25;;
69327;SDS011;56472;52.114;5.492;2023-02-28T11:32:30;1.35;;;1.27;;
69327;SDS011;56472;52.114;5.492;2023-02-28T11:37:27;1.33;;;1.25;;
69327;SDS011;56472;52.114;5.492;2023-02-28T11:39:55;1.50;;;1.40;;
69327;SDS011;56472;52.114;5.492;2023-02-28T11:51:15;1.58;;;1.48;;
69327;SDS011;56472;52.114;5.492;2023-02-28T11:56:35;1.58;;;1.48;;
69327;SDS011;56472;52.114;5.492;2023-02-28T11:59:13;2.00;;;1.60;;
69327;SDS011;56472;52.114;5.492;2023-02-28T12:12:54;3.00;;;1.35;;
69327;SDS011;56472;52.114;5.492;2023-02-28T12:15:38;1.80;;;1.70;;
69327;SDS011;56472;52.114;5.492;2023-02-28T12:18:19;1.67;;;1.40;;
69327;SDS011;56472;52.114;5.492;2023-02-28T12:26:49;2.22;;;1.73;;
69327;SDS011;56472;52.114;5.492;2023-02-28T12:29:21;1.83;;;1.70;;
69327;SDS011;56472;52.114;5.492;2023-02-28T12:31:53;1.52;;;1.45;;
69327;SDS011;56472;52.114;5.492;2023-02-28T12:34:23;1.55;;;1.45;;
69327;SDS011;56472;52.114;5.492;2023-02-28T12:37:25;1.67;;;1.58;;
69327;SDS011;56472;52.114;5.492;2023-02-28T12:40:02;1.35;;;1.25;;
69327;SDS011;56472;52.114;5.492;2023-02-28T12:42:42;1.80;;;1.70;;
69327;SDS011;56472;52.114;5.492;2023-02-28T12:45:23;1.92;;;1.83;;
69327;SDS011;56472;52.114;5.492;2023-02-28T12:47:56;1.50;;;1.48;;
69327;SDS011;56472;52.114;5.492;2023-02-28T12:50:27;1.88;;;1.77;;
69327;SDS011;56472;52.114;5.492;2023-02-28T12:53:02;1.83;;;1.73;;
69327;SDS011;56472;52.114;5.492;2023-02-28T13:09:38;2.47;;;1.95;;
69327;SDS011;56472;52.114;5.492;2023-02-28T13:12:13;2.08;;;1.88;;
69327;SDS011;56472;52.114;5.492;2023-02-28T13:14:42;1.40;;;1.35;;
69327;SDS011;56472;52.114;5.492;2023-02-28T13:17:10;2.25;;;1.58;;
69327;SDS011;56472;52.114;5.492;2023-02-28T13:23:16;1.60;;;1.50;;
69327;SDS011;56472;52.114;5.492;2023-02-28T13:27:49;1.88;;;1.77;;
69327;SDS011;56472;52.114;5.492;2023-02-28T13:36:06;2.05;;;1.70;;
69327;SDS011;56472;52.114;5.492;2023-02-28T13:38:41;1.70;;;1.60;;
69327;SDS011;56472;52.114;5.492;2023-02-28T13:41:55;4.22;;;1.70;;
69327;SDS011;56472;52.114;5.492;2023-02-28T13:49:23;1.98;;;1.88;;
69327;SDS011;56472;52.114;5.492;2023-02-28T14:06:13;1.35;;;1.35;;
69327;SDS011;56472;52.114;5.492;2023-02-28T14:11:42;1.90;;;1.80;;
69327;SDS011;56472;52.114;5.492;2023-02-28T14:14:53;1.77;;;1.67;;
69327;SDS011;56472;52.114;5.492;2023-02-28T14:17:03;2.03;;;1.92;;
69327;SDS011;56472;52.114;5.492;2023-02-28T14:19:32;1.98;;;1.88;;
69327;SDS011;56472;52.114;5.492;2023-02-28T14:22:12;4.43;;;1.90;;
69327;SDS011;56472;52.114;5.492;2023-02-28T14:33:37;3.60;;;1.70;;
69327;SDS011;56472;52.114;5.492;2023-02-28T14:36:32;1.70;;;1.60;;
69327;SDS011;56472;52.114;5.492;2023-02-28T14:39:22;2.35;;;1.98;;
69327;SDS011;56472;52.114;5.492;2023-02-28T14:41:51;2.88;;;1.55;;
69327;SDS011;56472;52.114;5.492;2023-02-28T14:44:22;2.60;;;1.50;;
69327;SDS011;56472;52.114;5.492;2023-02-28T14:46:57;1.98;;;1.63;;
69327;SDS011;56472;52.114;5.492;2023-02-28T14:49:41;1.85;;;1.70;;
69327;SDS011;56472;52.114;5.492;2023-02-28T14:52:15;1.63;;;1.52;;
69327;SDS011;56472;52.114;5.492;2023-02-28T14:54:46;2.25;;;1.55;;
69327;SDS011;56472;52.114;5.492;2023-02-28T14:57:30;1.90;;;1.65;;
69327;SDS011;56472;52.114;5.492;2023-02-28T15:02:38;2.75;;;1.80;;
69327;SDS011;56472;52.114;5.492;2023-02-28T15:07:44;1.73;;;1.58;;
69327;SDS011;56472;52.114;5.492;2023-02-28T15:10:25;1.70;;;1.60;;
69327;SDS011;56472;52.114;5.492;2023-02-28T15:15:33;2.00;;;1.90;;
69327;SDS011;56472;52.114;5.492;2023-02-28T15:18:15;7.28;;;1.92;;
69327;SDS011;56472;52.114;5.492;2023-02-28T15:20:55;4.20;;;1.70;;
69327;SDS011;56472;52.114;5.492;2023-02-28T15:23:24;5.55;;;1.70;;
69327;SDS011;56472;52.114;5.492;2023-02-28T15:25:51;1.80;;;1.63;;
69327;SDS011;56472;52.114;5.492;2023-02-28T15:28:21;3.40;;;1.50;;
69327;SDS011;56472;52.114;5.492;2023-02-28T15:30:53;1.92;;;1.70;;
69327;SDS011;56472;52.114;5.492;2023-02-28T15:33:33;4.55;;;1.70;;
69327;SDS011;56472;52.114;5.492;2023-02-28T15:36:04;3.67;;;1.73;;
69327;SDS011;56472;52.114;5.492;2023-02-28T15:38:40;2.80;;;1.50;;
69327;SDS011;56472;52.114;5.492;2023-02-28T15:41:21;1.50;;;1.30;;
69327;SDS011;56472;52.114;5.492;2023-02-28T15:47:11;3.38;;;1.50;;
69327;SDS011;56472;52.114;5.492;2023-02-28T15:49:59;2.42;;;1.38;;
69327;SDS011;56472;52.114;5.492;2023-02-28T15:55:16;4.78;;;1.73;;
69327;SDS011;56472;52.114;5.492;2023-02-28T15:57:53;2.55;;;1.33;;
69327;SDS011;56472;52.114;5.492;2023-02-28T16:00:26;1.60;;;1.40;;
69327;SDS011;56472;52.114;5.492;2023-02-28T16:02:54;3.42;;;1.50;;
69327;SDS011;56472;52.114;5.492;2023-02-28T16:05:25;1.65;;;1.52;;
69327;SDS011;56472;52.114;5.492;2023-02-28T16:08:17;6.47;;;1.40;;
69327;SDS011;56472;52.114;5.492;2023-02-28T16:10:44;1.65;;;1.55;;
69327;SDS011;56472;52.114;5.492;2023-02-28T16:13:11;1.38;;;1.38;;
69327;SDS011;56472;52.114;5.492;2023-02-28T16:15:41;2.45;;;1.50;;
69327;SDS011;56472;52.114;5.492;2023-02-28T16:18:10;3.80;;;1.40;;
69327;SDS011;56472;52.114;5.492;2023-02-28T16:20:38;1.70;;;1.60;;
69327;SDS011;56472;52.114;5.492;2023-02-28T16:23:05;1.60;;;1.42;;
69327;SDS011;56472;52.114;5.492;2023-02-28T16:25:38;2.33;;;1.60;;
69327;SDS011;56472;52.114;5.492;2023-02-28T16:28:20;3.20;;;1.98;;
69327;SDS011;56472;52.114;5.492;2023-02-28T16:30:51;1.83;;;1.70;;
69327;SDS011;56472;52.114;5.492;2023-02-28T16:33:19;5.45;;;1.90;;
69327;SDS011;56472;52.114;5.492;2023-02-28T16:35:46;1.90;;;1.80;;
69327;SDS011;56472;52.114;5.492;2023-02-28T16:38:13;2.05;;;1.90;;
69327;SDS011;56472;52.114;5.492;2023-02-28T16:40:40;4.20;;;2.08;;
69327;SDS011;56472;52.114;5.492;2023-02-28T16:43:07;1.80;;;1.70;;
69327;SDS011;56472;52.114;5.492;2023-02-28T16:45:39;2.25;;;2.05;;
69327;SDS011;56472;52.114;5.492;2023-02-28T16:48:07;6.85;;;2.28;;
69327;SDS011;56472;52.114;5.492;2023-02-28T16:50:39;1.80;;;1.70;;
69327;SDS011;56472;52.114;5.492;2023-02-28T16:53:05;2.20;;;2.10;;
69327;SDS011;56472;52.114;5.492;2023-02-28T16:55:32;1.98;;;1.73;;
69327;SDS011;56472;52.114;5.492;2023-02-28T16:58:02;3.40;;;1.70;;
69327;SDS011;56472;52.114;5.492;2023-02-28T17:00:30;3.22;;;2.03;;
69327;SDS011;56472;52.114;5.492;2023-02-28T17:02:58;4.60;;;2.50;;
69327;SDS011;56472;52.114;5.492;2023-02-28T17:05:26;2.15;;;1.92;;
69327;SDS011;56472;52.114;5.492;2023-02-28T17:07:59;2.75;;;2.50;;
69327;SDS011;56472;52.114;5.492;2023-02-28T17:10:26;6.88;;;2.45;;
69327;SDS011;56472;52.114;5.492;2023-02-28T17:12:53;2.70;;;2.50;;
69327;SDS011;56472;52.114;5.492;2023-02-28T17:15:28;4.22;;;2.60;;
69327;SDS011;56472;52.114;5.492;2023-02-28T17:17:56;3.75;;;2.38;;
69327;SDS011;56472;52.114;5.492;2023-02-28T17:20:23;4.03;;;2.60;;
69327;SDS011;56472;52.114;5.492;2023-02-28T17:22:51;2.80;;;2.58;;
69327;SDS011;56472;52.114;5.492;2023-02-28T17:25:19;2.70;;;2.50;;
69327;SDS011;56472;52.114;5.492;2023-02-28T17:27:46;2.30;;;2.05;;
69327;SDS011;56472;52.114;5.492;2023-02-28T17:32:45;3.00;;;2.75;;
69327;SDS011;56472;52.114;5.492;2023-02-28T17:35:13;3.90;;;2.53;;
69327;SDS011;56472;52.114;5.492;2023-02-28T17:37:40;5.03;;;2.70;;
69327;SDS011;56472;52.114;5.492;2023-02-28T17:40:14;3.30;;;2.60;;
69327;SDS011;56472;52.114;5.492;2023-02-28T17:42:43;4.68;;;2.90;;
69327;SDS011;56472;52.114;5.492;2023-02-28T17:45:10;12.32;;;2.45;;
69327;SDS011;56472;52.114;5.492;2023-02-28T17:47:38;2.20;;;2.10;;
69327;SDS011;56472;52.114;5.492;2023-02-28T17:50:05;2.63;;;2.42;;
69327;SDS011;56472;52.114;5.492;2023-02-28T17:52:33;4.03;;;2.33;;